Time;durP1;ratioP1;P1;durP2;ratioP2;P2;SDS_P1;SDS_P2;PMS_P1;PMS_P2;Temp;Humidity;BMP_temperature;BMP_pressure;BME280_temperature;BME280_humidity;BME280_pressure;Samples;Min_cycle;Max_cycle;Signal;HPM_P1;HPM_P2
2021/08/13 00:00:38;;;;;;;10.88;8.38;;;;;;;;;;5040195;28;20089;-71
2021/08/13 00:03:04;;;;;;;11.70;8.43;;;;;;;;;;5037811;28;20387;-71
2021/08/13 00:05:30;;;;;;;10.73;8.13;;;;;;;;;;5048644;28;20049;-71
2021/08/13 00:07:57;;;;;;;11.88;7.93;;;;;;;;;;5052502;28;20392;-71
2021/08/13 00:10:23;;;;;;;12.50;8.60;;;;;;;;;;5048554;28;20037;-71
2021/08/13 00:12:49;;;;;;;11.38;9.10;;;;;;;;;;5053341;28;20041;-71
2021/08/13 00:15:15;;;;;;;12.00;7.97;;;;;;;;;;5047625;28;20124;-71
2021/08/13 00:17:42;;;;;;;10.65;7.97;;;;;;;;;;5044353;28;20048;-71
2021/08/13 00:20:08;;;;;;;13.52;8.20;;;;;;;;;;5052233;28;20052;-71
2021/08/13 00:22:35;;;;;;;12.27;9.63;;;;;;;;;;5055410;28;20473;-71
2021/08/13 00:25:01;;;;;;;13.90;9.60;;;;;;;;;;5040547;28;20044;-71
2021/08/13 00:27:27;;;;;;;14.93;10.20;;;;;;;;;;5048720;28;20441;-71
2021/08/13 00:29:53;;;;;;;14.30;10.00;;;;;;;;;;5049899;28;20098;-71
2021/08/13 00:32:20;;;;;;;14.10;10.35;;;;;;;;;;5056476;28;20056;-71
2021/08/13 00:34:46;;;;;;;13.82;9.93;;;;;;;;;;5051203;28;20107;-71
2021/08/13 00:37:13;;;;;;;14.07;10.93;;;;;;;;;;5050755;28;20048;-71
2021/08/13 00:39:39;;;;;;;12.73;10.15;;;;;;;;;;5044864;28;20041;-71
2021/08/13 00:42:05;;;;;;;12.15;9.82;;;;;;;;;;5067321;28;20044;-71
2021/08/13 00:44:31;;;;;;;16.55;10.52;;;;;;;;;;5041154;28;20061;-71
2021/08/13 00:46:58;;;;;;;13.75;10.02;;;;;;;;;;5048965;28;20045;-71
2021/08/13 00:49:24;;;;;;;12.65;9.73;;;;;;;;;;5048990;28;20153;-71
2021/08/13 00:51:50;;;;;;;15.07;9.95;;;;;;;;;;5063016;28;20044;-71
2021/08/13 00:54:19;;;;;;;17.02;9.48;;;;;;;;;;5049688;28;20439;-71
2021/08/13 00:56:46;;;;;;;12.25;9.63;;;;;;;;;;5052807;28;20139;-71
2021/08/13 00:59:12;;;;;;;15.75;11.50;;;;;;;;;;5051512;28;20044;-71
2021/08/13 01:01:38;;;;;;;12.23;10.35;;;;;;;;;;5049862;28;20058;-71
2021/08/13 01:04:05;;;;;;;12.90;10.15;;;;;;;;;;5049321;28;20041;-71
2021/08/13 01:06:31;;;;;;;13.68;11.18;;;;;;;;;;5048655;28;20433;-71
2021/08/13 01:12:36;;;;;;;13.75;10.73;;;;;;;;;;5052195;28;20036;-71
2021/08/13 01:15:05;;;;;;;15.80;10.35;;;;;;;;;;5051000;28;20718;-71
2021/08/13 01:17:36;;;;;;;13.55;9.55;;;;;;;;;;5051956;28;20437;-71
2021/08/13 01:20:06;;;;;;;14.25;10.13;;;;;;;;;;5047705;28;20056;-70
2021/08/13 01:22:46;;;;;;;16.58;10.10;;;;;;;;;;5050472;28;20477;-71
2021/08/13 01:25:14;;;;;;;13.13;9.27;;;;;;;;;;5043235;28;20139;-71
2021/08/13 01:27:44;;;;;;;13.55;10.27;;;;;;;;;;5047873;28;20048;-71
2021/08/13 01:30:12;;;;;;;17.42;10.93;;;;;;;;;;5047699;28;20052;-71
2021/08/13 01:32:41;;;;;;;14.75;11.50;;;;;;;;;;5045882;28;20151;-71
2021/08/13 01:35:09;;;;;;;17.00;10.88;;;;;;;;;;5045075;28;20461;-71
2021/08/13 01:37:37;;;;;;;16.00;10.52;;;;;;;;;;5050075;28;20772;-71
2021/08/13 01:40:06;;;;;;;15.82;9.88;;;;;;;;;;5048588;28;20044;-71
2021/08/13 01:42:34;;;;;;;12.73;10.30;;;;;;;;;;5047737;28;20083;-71
2021/08/13 01:45:01;;;;;;;11.93;8.77;;;;;;;;;;5050622;28;20086;-71
2021/08/13 01:47:28;;;;;;;15.77;10.48;;;;;;;;;;5049876;28;20471;-71
2021/08/13 01:49:55;;;;;;;16.00;10.55;;;;;;;;;;5040020;28;20099;-71
2021/08/13 01:52:22;;;;;;;17.65;11.65;;;;;;;;;;5037800;28;20049;-71
2021/08/13 01:54:49;;;;;;;18.98;13.10;;;;;;;;;;5044339;28;20127;-71
2021/08/13 01:57:15;;;;;;;19.63;14.00;;;;;;;;;;5044824;28;20041;-71
2021/08/13 01:59:41;;;;;;;20.60;15.10;;;;;;;;;;5043553;28;20470;-71
2021/08/13 02:02:08;;;;;;;21.98;15.45;;;;;;;;;;5048114;28;20085;-71
2021/08/13 02:04:34;;;;;;;22.90;16.38;;;;;;;;;;5039686;28;20048;-71
2021/08/13 02:07:00;;;;;;;21.60;15.38;;;;;;;;;;5046417;28;20042;-71
2021/08/13 02:09:27;;;;;;;19.83;15.45;;;;;;;;;;5046089;28;20033;-71
2021/08/13 02:11:53;;;;;;;20.15;15.43;;;;;;;;;;5048859;28;20124;-70
2021/08/13 02:14:20;;;;;;;21.45;15.50;;;;;;;;;;5047494;28;20046;-71
2021/08/13 02:16:49;;;;;;;21.88;16.55;;;;;;;;;;5046961;28;20048;-71
2021/08/13 02:19:20;;;;;;;26.17;17.75;;;;;;;;;;5047052;28;20102;-71
2021/08/13 02:21:49;;;;;;;24.38;17.10;;;;;;;;;;5043969;28;20046;-71
2021/08/13 02:24:17;;;;;;;23.60;16.33;;;;;;;;;;5043475;28;20040;-71
2021/08/13 02:26:45;;;;;;;23.92;15.98;;;;;;;;;;5042717;28;20045;-71
2021/08/13 02:29:11;;;;;;;24.42;16.90;;;;;;;;;;5045277;28;20043;-70
2021/08/13 02:31:37;;;;;;;21.90;16.48;;;;;;;;;;5048139;28;20160;-71
2021/08/13 02:34:06;;;;;;;29.02;17.98;;;;;;;;;;5046790;28;20061;-71
2021/08/13 02:36:37;;;;;;;24.27;17.38;;;;;;;;;;5045120;28;20117;-71
2021/08/13 02:39:07;;;;;;;24.75;16.83;;;;;;;;;;5044467;28;20053;-71
2021/08/13 02:41:34;;;;;;;27.88;18.35;;;;;;;;;;5044008;28;20361;-71
2021/08/13 02:44:02;;;;;;;26.65;18.08;;;;;;;;;;5044399;28;20044;-71
2021/08/13 02:46:39;;;;;;;26.73;18.40;;;;;;;;;;5043043;28;20064;-71
2021/08/13 02:49:06;;;;;;;23.10;17.73;;;;;;;;;;5044603;28;20099;-71
2021/08/13 02:51:34;;;;;;;27.10;17.25;;;;;;;;;;5044901;28;20392;-71
2021/08/13 02:54:00;;;;;;;24.85;17.73;;;;;;;;;;5047900;28;20061;-71
2021/08/13 02:56:29;;;;;;;24.20;18.42;;;;;;;;;;5049839;28;20072;-71
2021/08/13 02:58:58;;;;;;;29.40;18.35;;;;;;;;;;5045736;28;20073;-70
2021/08/13 03:01:26;;;;;;;28.52;17.80;;;;;;;;;;5047092;28;20049;-71
2021/08/13 03:03:53;;;;;;;27.08;19.40;;;;;;;;;;5048606;28;20361;-71
2021/08/13 03:06:21;;;;;;;27.88;19.67;;;;;;;;;;5049578;28;20063;-71
2021/08/13 03:08:48;;;;;;;28.15;19.13;;;;;;;;;;5048971;28;20087;-70
2021/08/13 03:11:15;;;;;;;36.08;19.40;;;;;;;;;;5048510;28;20045;-71
2021/08/13 03:13:43;;;;;;;30.65;20.33;;;;;;;;;;5045088;28;20040;-71
2021/08/13 03:16:10;;;;;;;27.30;19.42;;;;;;;;;;5045701;28;20496;-71
2021/08/13 03:18:37;;;;;;;27.42;19.10;;;;;;;;;;5046389;28;20041;-71
2021/08/13 03:21:05;;;;;;;32.58;20.00;;;;;;;;;;5045715;28;20040;-71
2021/08/13 03:23:32;;;;;;;32.17;20.45;;;;;;;;;;5043241;28;20045;-71
2021/08/13 03:25:58;;;;;;;33.67;20.55;;;;;;;;;;5042913;28;20033;-71
2021/08/13 03:28:24;;;;;;;34.85;20.85;;;;;;;;;;5038667;28;20044;-71
2021/08/13 03:30:51;;;;;;;36.92;20.33;;;;;;;;;;5046302;28;20041;-71
2021/08/13 03:33:17;;;;;;;29.95;20.20;;;;;;;;;;5041331;28;20498;-71
2021/08/13 03:35:44;;;;;;;30.58;20.80;;;;;;;;;;5042935;28;20037;-71
2021/08/13 03:38:11;;;;;;;34.00;22.25;;;;;;;;;;5040706;28;20455;-71
2021/08/13 03:40:38;;;;;;;34.53;22.98;;;;;;;;;;5037156;28;20136;-71
2021/08/13 03:43:04;;;;;;;33.85;22.95;;;;;;;;;;5070507;28;20163;-71
2021/08/13 03:45:30;;;;;;;41.95;24.52;;;;;;;;;;5045843;28;20409;-71
2021/08/13 03:47:57;;;;;;;34.85;21.85;;;;;;;;;;5045788;28;20041;-71
2021/08/13 03:50:23;;;;;;;32.58;22.38;;;;;;;;;;5045431;28;20045;-71
2021/08/13 03:52:49;;;;;;;43.67;24.02;;;;;;;;;;5044582;28;20400;-71
2021/08/13 03:55:16;;;;;;;33.58;23.02;;;;;;;;;;5042728;28;20055;-71
2021/08/13 03:57:42;;;;;;;39.92;25.27;;;;;;;;;;5041451;28;20052;-71
2021/08/13 04:00:10;;;;;;;35.13;22.58;;;;;;;;;;5045260;28;20045;-71
2021/08/13 04:02:36;;;;;;;46.72;25.60;;;;;;;;;;5042091;28;20049;-71
2021/08/13 04:05:03;;;;;;;38.97;24.33;;;;;;;;;;5050465;28;20036;-71
2021/08/13 04:07:30;;;;;;;37.17;23.63;;;;;;;;;;5046904;28;20045;-71
2021/08/13 04:09:56;;;;;;;33.97;22.98;;;;;;;;;;5044303;28;20397;-71
2021/08/13 04:12:22;;;;;;;35.38;23.05;;;;;;;;;;5043726;28;20033;-71
2021/08/13 04:14:49;;;;;;;35.63;21.85;;;;;;;;;;5046323;28;20049;-71
2021/08/13 04:17:16;;;;;;;41.80;23.92;;;;;;;;;;5047367;28;20068;-71
2021/08/13 04:19:42;;;;;;;57.65;27.73;;;;;;;;;;5045117;28;20045;-71
2021/08/13 04:22:09;;;;;;;40.88;23.85;;;;;;;;;;5046393;28;20473;-70
2021/08/13 04:24:35;;;;;;;48.72;25.45;;;;;;;;;;5049613;28;20039;-71
2021/08/13 04:27:01;;;;;;;46.90;26.25;;;;;;;;;;5046791;28;20041;-71
2021/08/13 04:29:28;;;;;;;42.47;25.73;;;;;;;;;;5048342;28;20598;-70
2021/08/13 04:31:54;;;;;;;42.42;26.00;;;;;;;;;;5048528;28;20548;-70
2021/08/13 04:34:21;;;;;;;48.10;26.83;;;;;;;;;;5048290;28;20049;-71
2021/08/13 04:36:48;;;;;;;41.55;25.77;;;;;;;;;;5043392;28;20084;-71
2021/08/13 04:39:15;;;;;;;50.38;29.20;;;;;;;;;;5044833;28;20124;-71
2021/08/13 04:41:42;;;;;;;50.08;27.27;;;;;;;;;;5045609;28;20493;-71
2021/08/13 04:44:09;;;;;;;54.28;29.52;;;;;;;;;;5046298;28;20069;-71
2021/08/13 04:46:36;;;;;;;57.65;31.13;;;;;;;;;;5047006;28;20056;-71
2021/08/13 04:49:02;;;;;;;54.95;29.85;;;;;;;;;;5040327;28;20034;-70
2021/08/13 04:51:29;;;;;;;55.90;31.02;;;;;;;;;;5042542;28;20116;-71
2021/08/13 04:53:55;;;;;;;63.42;33.63;;;;;;;;;;5045760;28;20062;-71
2021/08/13 04:56:22;;;;;;;73.50;35.72;;;;;;;;;;5041968;28;20497;-71
2021/08/13 04:58:48;;;;;;;71.53;37.35;;;;;;;;;;5046116;28;20036;-71
2021/08/13 05:01:17;;;;;;;76.03;37.42;;;;;;;;;;5045539;28;20120;-72
2021/08/13 05:03:43;;;;;;;68.07;36.28;;;;;;;;;;5054481;28;20059;-72
2021/08/13 05:06:12;;;;;;;72.40;36.50;;;;;;;;;;5045136;28;20041;-72
2021/08/13 05:08:39;;;;;;;72.88;37.10;;;;;;;;;;5044168;28;20048;-72
2021/08/13 05:11:05;;;;;;;71.47;36.88;;;;;;;;;;5037297;28;20037;-72
2021/08/13 05:13:32;;;;;;;66.15;35.45;;;;;;;;;;5047481;28;20052;-72
2021/08/13 05:15:58;;;;;;;68.13;36.60;;;;;;;;;;5045910;28;20049;-72
2021/08/13 05:18:24;;;;;;;66.40;36.75;;;;;;;;;;5046510;28;20075;-72
2021/08/13 05:20:50;;;;;;;78.55;39.28;;;;;;;;;;5044793;28;20143;-72
2021/08/13 05:23:17;;;;;;;80.82;39.22;;;;;;;;;;5039113;28;20480;-72
2021/08/13 05:25:43;;;;;;;87.53;40.42;;;;;;;;;;5040998;28;20832;-72
2021/08/13 05:28:29;;;;;;;83.85;41.58;;;;;;;;;;5063319;28;20453;-72
2021/08/13 05:30:56;;;;;;;78.50;42.47;;;;;;;;;;5039904;28;20137;-72
2021/08/13 05:33:22;;;;;;;84.40;44.63;;;;;;;;;;5042533;28;20061;-71
2021/08/13 05:35:52;;;;;;;79.65;42.05;;;;;;;;;;5047224;28;20048;-71
2021/08/13 05:38:19;;;;;;;88.15;45.08;;;;;;;;;;5042563;28;20042;-71
2021/08/13 05:40:45;;;;;;;83.32;43.47;;;;;;;;;;5043032;28;20774;-71
2021/08/13 05:43:12;;;;;;;75.30;42.33;;;;;;;;;;5041998;28;20141;-71
2021/08/13 05:45:38;;;;;;;76.85;41.25;;;;;;;;;;5042788;28;20495;-72
2021/08/13 05:48:05;;;;;;;79.22;41.05;;;;;;;;;;5042703;28;20118;-71
2021/08/13 05:50:31;;;;;;;75.32;42.20;;;;;;;;;;5051344;28;20108;-71
2021/08/13 05:52:58;;;;;;;68.05;39.03;;;;;;;;;;5042160;28;20104;-71
2021/08/13 05:55:24;;;;;;;69.13;37.47;;;;;;;;;;5048091;28;20044;-73
2021/08/13 05:57:50;;;;;;;64.28;38.03;;;;;;;;;;5042914;28;20064;-72
2021/08/13 06:00:17;;;;;;;62.83;35.85;;;;;;;;;;5045164;28;20041;-72
2021/08/13 06:02:53;;;;;;;57.95;36.22;;;;;;;;;;5043914;28;20044;-72
2021/08/13 06:05:19;;;;;;;52.58;32.50;;;;;;;;;;5044534;28;20125;-72
2021/08/13 06:07:46;;;;;;;51.72;31.63;;;;;;;;;;5045443;28;20149;-72
2021/08/13 06:10:12;;;;;;;51.40;31.65;;;;;;;;;;5050855;28;21141;-72
2021/08/13 06:12:38;;;;;;;56.35;33.10;;;;;;;;;;5046261;28;20056;-72
2021/08/13 06:15:05;;;;;;;45.60;30.17;;;;;;;;;;5046282;28;20136;-71
2021/08/13 06:17:31;;;;;;;50.92;30.98;;;;;;;;;;5049406;28;20060;-72
2021/08/13 06:19:57;;;;;;;45.85;28.17;;;;;;;;;;5048457;28;20033;-72
2021/08/13 06:22:24;;;;;;;47.30;28.25;;;;;;;;;;5050034;28;20065;-72
2021/08/13 06:24:50;;;;;;;50.20;28.92;;;;;;;;;;5052259;28;20163;-72
2021/08/13 06:27:16;;;;;;;41.53;25.13;;;;;;;;;;5049500;28;20095;-72
2021/08/13 06:29:42;;;;;;;36.72;23.52;;;;;;;;;;5048313;28;20047;-71
2021/08/13 06:32:09;;;;;;;36.38;24.10;;;;;;;;;;5044933;28;20090;-71
2021/08/13 06:34:35;;;;;;;36.55;23.38;;;;;;;;;;5047517;28;20065;-72
2021/08/13 06:37:01;;;;;;;33.10;20.80;;;;;;;;;;5047813;28;20045;-72
2021/08/13 06:39:28;;;;;;;36.42;22.58;;;;;;;;;;5047817;28;20044;-72
2021/08/13 06:41:54;;;;;;;35.75;23.02;;;;;;;;;;5049173;28;20049;-71
2021/08/13 06:44:21;;;;;;;31.67;22.30;;;;;;;;;;5053475;28;20065;-71
2021/08/13 06:46:47;;;;;;;30.88;21.10;;;;;;;;;;5049933;28;20072;-71
2021/08/13 06:49:14;;;;;;;29.58;20.65;;;;;;;;;;5046248;28;20056;-71
2021/08/13 06:51:40;;;;;;;28.88;20.42;;;;;;;;;;5045049;28;20048;-71
2021/08/13 06:54:06;;;;;;;31.98;20.30;;;;;;;;;;5047996;28;20041;-71
2021/08/13 06:56:32;;;;;;;27.83;19.55;;;;;;;;;;5046940;28;20064;-71
2021/08/13 06:58:59;;;;;;;25.52;17.73;;;;;;;;;;5040742;28;20119;-71
2021/08/13 07:01:25;;;;;;;27.90;18.33;;;;;;;;;;5048707;28;20045;-72
2021/08/13 07:03:52;;;;;;;25.70;18.63;;;;;;;;;;5048382;28;20039;-71
2021/08/13 07:06:18;;;;;;;28.52;18.60;;;;;;;;;;5047177;28;20033;-71
2021/08/13 07:08:44;;;;;;;23.30;15.93;;;;;;;;;;5044930;28;20717;-71
2021/08/13 07:11:10;;;;;;;23.25;17.15;;;;;;;;;;5037731;28;20046;-71
2021/08/13 07:13:37;;;;;;;25.95;17.33;;;;;;;;;;5033192;28;20054;-71
2021/08/13 07:16:03;;;;;;;23.63;16.38;;;;;;;;;;5037926;28;20160;-71
2021/08/13 07:18:29;;;;;;;23.75;16.35;;;;;;;;;;5036278;28;20080;-72
2021/08/13 07:20:56;;;;;;;22.38;15.98;;;;;;;;;;5044034;28;20478;-73
2021/08/13 07:23:22;;;;;;;18.40;14.13;;;;;;;;;;5045246;28;20045;-71
2021/08/13 07:25:48;;;;;;;22.77;16.02;;;;;;;;;;5047286;28;20053;-71
2021/08/13 07:28:14;;;;;;;22.02;16.45;;;;;;;;;;5045432;28;20046;-71
2021/08/13 07:30:41;;;;;;;23.95;16.60;;;;;;;;;;5045113;28;20041;-72
2021/08/13 07:33:07;;;;;;;22.40;14.90;;;;;;;;;;5046383;28;20094;-71
2021/08/13 07:35:34;;;;;;;23.13;13.20;;;;;;;;;;5046271;28;20076;-71
2021/08/13 07:38:00;;;;;;;18.33;12.30;;;;;;;;;;5046977;28;20163;-71
2021/08/13 07:40:26;;;;;;;19.83;12.73;;;;;;;;;;5048032;28;20400;-71
2021/08/13 07:42:54;;;;;;;18.40;10.82;;;;;;;;;;5038311;28;20596;-71
2021/08/13 07:45:22;;;;;;;18.70;11.57;;;;;;;;;;5044157;28;20163;-70
2021/08/13 07:47:49;;;;;;;16.15;11.52;;;;;;;;;;5047744;28;20045;-71
2021/08/13 07:50:15;;;;;;;21.17;13.35;;;;;;;;;;5048614;28;20583;-70
2021/08/13 07:52:41;;;;;;;22.23;13.30;;;;;;;;;;5049578;28;20071;-70
2021/08/13 07:55:07;;;;;;;18.70;12.48;;;;;;;;;;5052097;28;20404;-70
2021/08/13 07:57:34;;;;;;;20.05;13.32;;;;;;;;;;5052538;28;20060;-70
2021/08/13 08:00:00;;;;;;;15.95;12.35;;;;;;;;;;5053665;28;20041;-70
2021/08/13 08:02:27;;;;;;;21.73;13.23;;;;;;;;;;5052158;28;20037;-70
2021/08/13 08:04:53;;;;;;;21.35;13.60;;;;;;;;;;5057137;28;20481;-70
2021/08/13 08:07:19;;;;;;;19.23;13.23;;;;;;;;;;5052758;28;20121;-70
2021/08/13 08:09:45;;;;;;;20.25;12.10;;;;;;;;;;5055479;28;20051;-70
2021/08/13 08:12:12;;;;;;;15.90;10.35;;;;;;;;;;5052916;28;20095;-71
2021/08/13 08:14:38;;;;;;;16.98;10.70;;;;;;;;;;5056472;28;20072;-71
2021/08/13 08:17:05;;;;;;;14.98;9.35;;;;;;;;;;5057850;28;20049;-71
2021/08/13 08:19:31;;;;;;;14.52;9.55;;;;;;;;;;5052343;28;20041;-70
2021/08/13 08:21:57;;;;;;;15.93;9.80;;;;;;;;;;5052406;28;20040;-71
2021/08/13 08:24:24;;;;;;;15.13;8.73;;;;;;;;;;5051597;28;20059;-71
2021/08/13 08:26:50;;;;;;;13.73;8.68;;;;;;;;;;5052043;28;20479;-70
2021/08/13 08:29:16;;;;;;;14.23;8.80;;;;;;;;;;5079975;28;20085;-71
2021/08/13 08:31:43;;;;;;;17.20;8.13;;;;;;;;;;5053489;28;20508;-71
2021/08/13 08:34:09;;;;;;;14.77;7.60;;;;;;;;;;5056516;28;20044;-71
2021/08/13 08:36:36;;;;;;;13.23;7.80;;;;;;;;;;5053168;28;20045;-70
2021/08/13 08:39:03;;;;;;;14.02;8.23;;;;;;;;;;5051718;28;20136;-70
2021/08/13 08:41:30;;;;;;;14.30;7.82;;;;;;;;;;5052230;28;20053;-70
2021/08/13 08:43:56;;;;;;;16.10;7.90;;;;;;;;;;5051274;28;20040;-70
2021/08/13 08:46:24;;;;;;;17.60;8.60;;;;;;;;;;5053076;28;20041;-71
2021/08/13 08:48:52;;;;;;;12.70;6.57;;;;;;;;;;5052586;28;20059;-71
2021/08/13 08:51:19;;;;;;;12.10;7.18;;;;;;;;;;5054553;28;20183;-71
2021/08/13 08:53:49;;;;;;;15.50;7.63;;;;;;;;;;5051575;28;20033;-70
2021/08/13 08:56:17;;;;;;;11.30;7.45;;;;;;;;;;5050228;28;20434;-70
2021/08/13 08:58:46;;;;;;;15.70;6.93;;;;;;;;;;5051088;28;20037;-70
2021/08/13 09:01:13;;;;;;;12.65;6.90;;;;;;;;;;5052264;28;20493;-71
2021/08/13 09:03:41;;;;;;;12.27;7.07;;;;;;;;;;5052861;28;20490;-71
2021/08/13 09:06:08;;;;;;;10.90;6.93;;;;;;;;;;5050985;28;20472;-70
2021/08/13 09:08:34;;;;;;;13.73;6.80;;;;;;;;;;5051341;28;20056;-71
2021/08/13 09:11:00;;;;;;;12.60;6.90;;;;;;;;;;5052105;28;20079;-70
2021/08/13 09:13:27;;;;;;;13.00;6.30;;;;;;;;;;5047230;28;20045;-71
2021/08/13 09:15:53;;;;;;;11.80;6.35;;;;;;;;;;5050933;28;20048;-70
2021/08/13 09:18:21;;;;;;;15.38;7.05;;;;;;;;;;5051330;28;20114;-71
2021/08/13 09:20:50;;;;;;;22.30;7.18;;;;;;;;;;5048808;28;20045;-70
2021/08/13 09:23:28;;;;;;;10.32;5.88;;;;;;;;;;5055333;28;20097;-70
2021/08/13 09:25:57;;;;;;;10.13;5.10;;;;;;;;;;5054548;28;20131;-71
2021/08/13 09:28:41;;;;;;;8.93;4.65;;;;;;;;;;5051056;28;20064;-71
2021/08/13 09:31:09;;;;;;;10.10;4.38;;;;;;;;;;5056556;28;20447;-71
2021/08/13 09:33:36;;;;;;;10.43;4.60;;;;;;;;;;5050786;28;20119;-70
2021/08/13 09:36:02;;;;;;;11.82;4.85;;;;;;;;;;5051939;28;20053;-71
2021/08/13 09:38:29;;;;;;;8.70;4.50;;;;;;;;;;5048355;28;20049;-70
2021/08/13 09:41:04;;;;;;;8.57;4.00;;;;;;;;;;5054799;28;20115;-71
2021/08/13 09:43:31;;;;;;;9.07;4.72;;;;;;;;;;5052471;28;20517;-71
2021/08/13 09:46:06;;;;;;;13.20;5.22;;;;;;;;;;5053308;28;20068;-70
2021/08/13 09:48:32;;;;;;;10.90;4.25;;;;;;;;;;5050008;28;20069;-71
2021/08/13 09:50:59;;;;;;;7.63;4.07;;;;;;;;;;5051660;28;20045;-70
2021/08/13 09:53:25;;;;;;;9.18;4.28;;;;;;;;;;5050854;28;20049;-71
2021/08/13 09:55:51;;;;;;;11.80;5.10;;;;;;;;;;5049075;28;20039;-71
2021/08/13 09:58:26;;;;;;;7.50;3.50;;;;;;;;;;5053921;28;20212;-71
2021/08/13 10:00:54;;;;;;;11.38;4.80;;;;;;;;;;5049748;28;20106;-70
2021/08/13 10:03:20;;;;;;;9.82;4.38;;;;;;;;;;5050408;28;20037;-71
2021/08/13 10:06:01;;;;;;;13.88;4.75;;;;;;;;;;5047731;28;20049;-71
2021/08/13 10:08:39;;;;;;;12.70;4.10;;;;;;;;;;5049709;28;20471;-71
2021/08/13 10:11:13;;;;;;;7.80;3.75;;;;;;;;;;5050503;28;20037;-71
2021/08/13 10:13:41;;;;;;;8.75;3.72;;;;;;;;;;5050575;28;20044;-71
2021/08/13 10:16:07;;;;;;;12.02;3.78;;;;;;;;;;5049249;28;20382;-71
2021/08/13 10:18:36;;;;;;;8.60;3.83;;;;;;;;;;5050029;28;20044;-71
2021/08/13 10:21:02;;;;;;;12.02;3.50;;;;;;;;;;5052315;28;20037;-71
2021/08/13 10:23:29;;;;;;;10.63;3.50;;;;;;;;;;5050142;28;20495;-71
2021/08/13 10:25:56;;;;;;;8.07;3.65;;;;;;;;;;5051726;28;20064;-71
2021/08/13 10:28:23;;;;;;;14.75;4.05;;;;;;;;;;5056650;28;20051;-71
2021/08/13 10:30:50;;;;;;;12.07;4.10;;;;;;;;;;5049534;28;20048;-71
2021/08/13 10:33:18;;;;;;;10.93;3.67;;;;;;;;;;5049656;28;20048;-71
2021/08/13 10:35:54;;;;;;;10.07;3.85;;;;;;;;;;5049770;28;20053;-70
2021/08/13 10:38:21;;;;;;;13.32;3.83;;;;;;;;;;5052510;28;20078;-71
2021/08/13 10:40:48;;;;;;;11.20;3.38;;;;;;;;;;5049820;28;20044;-70
2021/08/13 10:43:15;;;;;;;7.15;3.10;;;;;;;;;;5052439;28;20437;-71
2021/08/13 10:45:42;;;;;;;8.73;3.17;;;;;;;;;;5049598;28;20102;-70
2021/08/13 10:48:08;;;;;;;17.50;4.07;;;;;;;;;;5049494;28;20442;-70
2021/08/13 10:50:35;;;;;;;13.60;3.30;;;;;;;;;;5073326;28;20132;-70
2021/08/13 10:53:02;;;;;;;9.02;3.10;;;;;;;;;;5049631;28;20041;-70
2021/08/13 10:55:42;;;;;;;16.17;3.90;;;;;;;;;;5049726;28;20037;-71
2021/08/13 10:58:08;;;;;;;11.38;4.15;;;;;;;;;;5046554;28;20127;-71
2021/08/13 11:00:53;;;;;;;14.60;3.80;;;;;;;;;;5049308;28;20044;-71
2021/08/13 11:03:20;;;;;;;14.15;4.35;;;;;;;;;;5051635;28;20089;-70
2021/08/13 11:05:51;;;;;;;10.80;3.97;;;;;;;;;;5054827;28;20040;-71
2021/08/13 11:08:18;;;;;;;11.80;3.90;;;;;;;;;;5056609;28;20040;-71
2021/08/13 11:10:47;;;;;;;17.48;4.40;;;;;;;;;;5057799;28;20048;-71
2021/08/13 11:13:17;;;;;;;13.20;3.90;;;;;;;;;;5050845;28;20036;-71
2021/08/13 11:15:44;;;;;;;14.50;3.85;;;;;;;;;;5049456;28;20056;-71
2021/08/13 11:18:31;;;;;;;12.63;3.75;;;;;;;;;;5049920;28;20121;-71
2021/08/13 11:20:58;;;;;;;14.13;4.03;;;;;;;;;;5049100;28;20033;-71
2021/08/13 11:23:24;;;;;;;12.52;3.70;;;;;;;;;;5049452;28;20052;-71
2021/08/13 11:25:52;;;;;;;16.33;3.95;;;;;;;;;;5048527;28;20488;-71
2021/08/13 11:28:20;;;;;;;18.65;4.65;;;;;;;;;;5052887;28;20167;-71
2021/08/13 11:30:47;;;;;;;16.67;4.10;;;;;;;;;;5053700;28;20037;-71
2021/08/13 11:33:31;;;;;;;11.70;3.50;;;;;;;;;;5052654;28;20224;-71
2021/08/13 11:35:58;;;;;;;15.07;4.22;;;;;;;;;;5080552;28;20207;-71
2021/08/13 11:38:50;;;;;;;18.23;4.93;;;;;;;;;;5060529;28;20056;-71
2021/08/13 11:41:24;;;;;;;17.90;4.63;;;;;;;;;;5055964;28;20041;-71
2021/08/13 11:43:51;;;;;;;17.85;4.25;;;;;;;;;;5055578;28;20044;-71
2021/08/13 11:46:24;;;;;;;17.30;3.72;;;;;;;;;;5055547;28;20175;-71
2021/08/13 11:48:53;;;;;;;19.60;4.65;;;;;;;;;;5052717;28;20053;-71
2021/08/13 11:51:21;;;;;;;13.50;4.22;;;;;;;;;;5053385;28;20055;-70
2021/08/13 11:53:47;;;;;;;20.15;4.75;;;;;;;;;;5052418;28;20049;-71
2021/08/13 11:56:22;;;;;;;13.32;3.72;;;;;;;;;;5059451;28;20045;-71
2021/08/13 11:58:56;;;;;;;16.50;4.10;;;;;;;;;;5058895;28;20087;-71
2021/08/13 12:01:23;;;;;;;18.98;4.68;;;;;;;;;;5052233;28;20055;-71
2021/08/13 12:03:51;;;;;;;13.80;4.03;;;;;;;;;;5052641;28;20122;-71
2021/08/13 12:06:18;;;;;;;14.02;4.30;;;;;;;;;;5055051;28;20132;-71
2021/08/13 12:08:45;;;;;;;12.13;3.63;;;;;;;;;;5051763;28;20056;-71
2021/08/13 12:11:12;;;;;;;12.38;3.50;;;;;;;;;;5052412;28;20090;-71
2021/08/13 12:13:39;;;;;;;14.52;3.60;;;;;;;;;;5053194;28;20055;-71
2021/08/13 12:16:05;;;;;;;21.27;4.38;;;;;;;;;;5057170;28;20493;-71
2021/08/13 12:18:32;;;;;;;13.70;3.90;;;;;;;;;;5052486;28;20448;-71
2021/08/13 12:21:04;;;;;;;15.95;4.05;;;;;;;;;;5052341;28;20499;-71
2021/08/13 12:23:30;;;;;;;13.13;3.42;;;;;;;;;;5052073;28;20077;-71
2021/08/13 12:26:00;;;;;;;15.73;4.50;;;;;;;;;;5050327;28;20147;-71
2021/08/13 12:28:29;;;;;;;16.15;3.97;;;;;;;;;;5051964;28;20040;-71
2021/08/13 12:31:03;;;;;;;14.98;4.28;;;;;;;;;;5054956;28;20037;-71
2021/08/13 12:33:29;;;;;;;14.45;3.63;;;;;;;;;;5052114;28;20052;-71
2021/08/13 12:35:55;;;;;;;20.83;5.40;;;;;;;;;;5051595;28;20045;-71
2021/08/13 12:38:31;;;;;;;19.20;3.30;;;;;;;;;;5051612;28;20105;-71
2021/08/13 12:40:58;;;;;;;16.45;3.90;;;;;;;;;;5052380;28;20037;-71
2021/08/13 12:43:24;;;;;;;14.07;3.83;;;;;;;;;;5053181;28;20154;-71
2021/08/13 12:45:52;;;;;;;12.40;3.33;;;;;;;;;;5055286;28;20515;-71
2021/08/13 12:48:19;;;;;;;17.88;4.57;;;;;;;;;;5049200;28;20424;-71
2021/08/13 12:50:45;;;;;;;10.95;3.30;;;;;;;;;;5052104;28;20068;-71
2021/08/13 12:53:13;;;;;;;14.13;3.67;;;;;;;;;;5052228;28;20120;-71
2021/08/13 12:55:42;;;;;;;15.43;4.18;;;;;;;;;;5053002;28;20060;-71
2021/08/13 12:58:08;;;;;;;12.30;3.63;;;;;;;;;;5052193;28;20052;-71
2021/08/13 13:00:35;;;;;;;15.27;3.90;;;;;;;;;;5051617;28;20052;-71
2021/08/13 13:03:10;;;;;;;14.70;3.70;;;;;;;;;;5052702;28;20040;-71
2021/08/13 13:05:36;;;;;;;12.98;4.25;;;;;;;;;;5050022;28;20045;-71
2021/08/13 13:08:05;;;;;;;13.85;3.92;;;;;;;;;;5051879;28;20041;-71
2021/08/13 13:10:35;;;;;;;15.43;3.45;;;;;;;;;;5051376;28;20044;-71
2021/08/13 13:13:07;;;;;;;15.75;3.30;;;;;;;;;;5051532;28;20091;-71
2021/08/13 13:15:33;;;;;;;13.82;3.90;;;;;;;;;;5051273;28;20472;-71
2021/08/13 13:18:01;;;;;;;13.13;3.22;;;;;;;;;;5053577;28;20044;-71
2021/08/13 13:20:36;;;;;;;12.30;3.70;;;;;;;;;;5051187;28;20044;-71
2021/08/13 13:23:02;;;;;;;11.07;2.85;;;;;;;;;;5050576;28;20056;-71
2021/08/13 13:25:38;;;;;;;14.88;3.53;;;;;;;;;;5050967;28;20155;-71
2021/08/13 13:28:04;;;;;;;13.20;3.13;;;;;;;;;;5051251;28;20239;-71
2021/08/13 13:30:31;;;;;;;15.65;3.30;;;;;;;;;;5050466;28;20533;-71
2021/08/13 13:32:59;;;;;;;14.13;3.42;;;;;;;;;;5050595;28;20105;-71
2021/08/13 13:35:26;;;;;;;13.85;4.00;;;;;;;;;;5048311;28;20117;-71
2021/08/13 13:37:52;;;;;;;10.68;2.90;;;;;;;;;;5052166;28;20048;-71
2021/08/13 13:40:19;;;;;;;9.40;2.85;;;;;;;;;;5049383;28;20121;-71
2021/08/13 13:42:45;;;;;;;13.10;3.72;;;;;;;;;;5050089;28;20110;-71
2021/08/13 13:45:13;;;;;;;18.25;2.95;;;;;;;;;;5051013;28;20037;-71
2021/08/13 13:47:39;;;;;;;12.68;3.63;;;;;;;;;;5050111;28;20079;-71
2021/08/13 13:50:06;;;;;;;12.32;3.35;;;;;;;;;;5054214;28;20544;-71
2021/08/13 13:52:33;;;;;;;14.60;3.47;;;;;;;;;;5050655;28;20052;-71
2021/08/13 13:55:00;;;;;;;14.30;3.13;;;;;;;;;;5049973;28;20136;-71
2021/08/13 13:57:26;;;;;;;12.52;2.95;;;;;;;;;;5050055;28;20476;-71
2021/08/13 13:59:52;;;;;;;12.68;4.18;;;;;;;;;;5050128;28;20041;-71
2021/08/13 14:02:19;;;;;;;13.07;3.67;;;;;;;;;;5050056;28;20511;-71
2021/08/13 14:04:45;;;;;;;16.40;3.72;;;;;;;;;;5051808;28;20110;-71
2021/08/13 14:07:11;;;;;;;12.48;3.30;;;;;;;;;;5049643;28;20059;-71
2021/08/13 14:09:37;;;;;;;14.65;2.95;;;;;;;;;;5050402;28;20068;-71
2021/08/13 14:12:04;;;;;;;10.27;3.60;;;;;;;;;;5050492;28;20071;-71
2021/08/13 14:14:30;;;;;;;14.98;3.10;;;;;;;;;;5051541;28;20033;-71
2021/08/13 14:16:56;;;;;;;11.98;3.05;;;;;;;;;;5052507;28;20037;-71
2021/08/13 14:19:23;;;;;;;11.05;3.35;;;;;;;;;;5053274;28;20041;-71
2021/08/13 14:21:49;;;;;;;13.35;3.72;;;;;;;;;;5052711;28;20041;-71
2021/08/13 14:24:15;;;;;;;11.10;2.80;;;;;;;;;;5052541;28;20041;-71
2021/08/13 14:26:42;;;;;;;13.25;2.92;;;;;;;;;;5051389;28;20418;-71
2021/08/13 14:29:08;;;;;;;14.52;3.60;;;;;;;;;;5045665;28;20473;-71